Time;durP1;ratioP1;P1;durP2;ratioP2;P2;SDS_P1;SDS_P2;PMS_P1;PMS_P2;Temp;Humidity;BMP_temperature;BMP_pressure;BME280_temperature;BME280_humidity;BME280_pressure;Samples;Min_cycle;Max_cycle;Signal;HPM_P1;HPM_P2
2023/04/07 00:01:02;;;;;;;31.35;25.00;;;7.40;99.90;;;;;;5080979;28;20051;-80
2023/04/07 00:03:28;;;;;;;33.58;26.10;;;7.40;99.90;;;;;;5046276;28;20046;-80
2023/04/07 00:05:54;;;;;;;32.10;25.65;;;7.40;99.90;;;;;;5079397;28;20108;-81
2023/04/07 00:08:20;;;;;;;34.65;27.73;;;7.40;99.90;;;;;;5062987;28;20476;-80
2023/04/07 00:10:46;;;;;;;33.83;26.38;;;7.50;99.90;;;;;;5078893;28;20036;-81
2023/04/07 00:13:11;;;;;;;34.40;26.45;;;7.40;99.90;;;;;;5062856;28;20090;-80
2023/04/07 00:15:37;;;;;;;34.42;25.05;;;7.50;99.90;;;;;;5079850;28;20050;-80
2023/04/07 00:18:03;;;;;;;39.83;28.90;;;7.50;99.90;;;;;;5095796;28;20069;-80
2023/04/07 00:20:28;;;;;;;36.75;26.35;;;7.50;99.90;;;;;;5079386;28;20089;-80
2023/04/07 00:22:54;;;;;;;38.47;28.85;;;7.50;99.90;;;;;;5096099;28;20036;-80
2023/04/07 00:25:20;;;;;;;37.38;27.85;;;7.50;99.90;;;;;;5061539;28;20039;-81
2023/04/07 00:27:46;;;;;;;31.48;23.92;;;7.50;99.90;;;;;;5079742;28;20047;-81
2023/04/07 00:30:11;;;;;;;36.10;26.00;;;7.50;99.90;;;;;;5096628;28;20445;-80
2023/04/07 00:32:37;;;;;;;39.17;28.30;;;7.50;99.90;;;;;;5063053;28;20097;-80
2023/04/07 00:35:03;;;;;;;30.80;24.23;;;7.50;99.90;;;;;;5078659;28;20563;-81
2023/04/07 00:37:29;;;;;;;38.35;27.45;;;7.50;99.90;;;;;;5078943;28;20533;-80
2023/04/07 00:39:56;;;;;;;32.35;25.17;;;7.50;99.90;;;;;;5078073;28;20043;-80
2023/04/07 00:42:22;;;;;;;35.28;25.85;;;7.50;99.90;;;;;;5078831;28;20509;-79
2023/04/07 00:44:48;;;;;;;36.28;27.10;;;7.50;99.90;;;;;;5079194;28;20044;-80
2023/04/07 00:47:14;;;;;;;35.72;26.65;;;7.60;99.90;;;;;;5077413;28;20191;-81
2023/04/07 00:49:40;;;;;;;41.30;30.20;;;7.50;99.90;;;;;;5089084;28;20045;-80
2023/04/07 00:52:10;;;;;;;43.42;31.67;;;7.50;99.90;;;;;;5095475;28;20036;-80
2023/04/07 00:54:36;;;;;;;41.58;30.35;;;7.50;99.90;;;;;;5087159;28;20431;-80
2023/04/07 00:57:02;;;;;;;33.97;25.38;;;7.50;99.90;;;;;;5060949;28;20028;-81
2023/04/07 00:59:30;;;;;;;40.10;29.17;;;7.50;99.90;;;;;;5092054;28;20073;-81
2023/04/07 01:02:13;;;;;;;43.17;30.55;;;7.60;99.90;;;;;;5094912;28;20075;-79
2023/04/07 01:04:47;;;;;;;45.33;28.88;;;7.60;99.90;;;;;;5092827;28;20498;-81
2023/04/07 01:07:34;;;;;;;42.97;28.77;;;7.60;99.90;;;;;;5098171;28;20039;-82
2023/04/07 01:10:05;;;;;;;46.53;30.25;;;7.60;99.90;;;;;;5107317;28;20067;-80
2023/04/07 01:12:40;;;;;;;48.58;31.52;;;7.60;99.90;;;;;;5060833;28;20075;-80
2023/04/07 01:15:10;;;;;;;45.97;30.10;;;7.60;99.90;;;;;;5079550;28;20044;-80
2023/04/07 01:17:45;;;;;;;48.75;32.15;;;7.50;99.90;;;;;;5069277;28;20114;-80
2023/04/07 01:20:18;;;;;;;43.28;29.83;;;7.60;99.90;;;;;;5105294;28;20035;-80
2023/04/07 01:22:54;;;;;;;40.30;28.95;;;7.60;99.90;;;;;;5081998;28;20032;-80
2023/04/07 01:25:45;;;;;;;39.20;27.17;;;7.60;99.90;;;;;;5074216;28;20105;-79
2023/04/07 01:28:38;;;;;;;35.05;25.60;;;7.60;99.90;;;;;;5058785;28;20040;-80
2023/04/07 01:31:07;;;;;;;36.33;26.25;;;7.60;99.90;;;;;;5058430;28;20053;-80
2023/04/07 01:33:33;;;;;;;45.30;31.13;;;7.60;99.90;;;;;;5095081;28;20207;-81
2023/04/07 01:36:01;;;;;;;47.17;31.83;;;7.60;99.90;;;;;;5061692;28;20085;-79
2023/04/07 01:38:28;;;;;;;48.10;31.52;;;7.60;99.90;;;;;;5063549;28;20103;-79
2023/04/07 01:40:55;;;;;;;48.58;31.25;;;7.60;99.90;;;;;;5072107;28;20034;-80
2023/04/07 01:43:23;;;;;;;43.63;30.58;;;7.60;99.90;;;;;;5095628;28;20072;-80
2023/04/07 01:45:49;;;;;;;40.45;27.48;;;7.60;99.90;;;;;;5074801;28;20043;-80
2023/04/07 01:48:16;;;;;;;46.88;31.70;;;7.60;99.90;;;;;;5074783;28;20048;-80
2023/04/07 01:50:43;;;;;;;40.17;28.02;;;7.60;99.90;;;;;;5063247;28;20176;-80
2023/04/07 01:53:09;;;;;;;40.58;27.98;;;7.70;99.90;;;;;;5046209;28;20067;-80
2023/04/07 01:55:36;;;;;;;50.47;32.25;;;7.70;99.90;;;;;;5062051;28;20398;-80
2023/04/07 01:58:06;;;;;;;53.20;33.50;;;7.70;99.90;;;;;;5064251;28;20315;-80
2023/04/07 02:00:33;;;;;;;43.88;30.25;;;7.70;99.90;;;;;;5081390;28;20100;-80
2023/04/07 02:03:07;;;;;;;55.45;31.92;;;7.70;99.90;;;;;;5058426;28;20065;-80
2023/04/07 02:05:35;;;;;;;50.92;29.80;;;7.70;99.90;;;;;;5113367;28;20053;-80
2023/04/07 02:08:04;;;;;;;63.60;33.83;;;7.70;99.90;;;;;;5097465;28;20115;-80
2023/04/07 02:10:34;;;;;;;56.13;32.53;;;7.70;99.90;;;;;;5085719;28;20040;-80
2023/04/07 02:13:02;;;;;;;58.70;32.58;;;7.70;99.90;;;;;;5081802;28;20039;-81
2023/04/07 02:15:30;;;;;;;57.05;32.53;;;7.80;99.90;;;;;;5101335;28;20035;-81
2023/04/07 02:17:58;;;;;;;55.53;34.00;;;7.70;99.90;;;;;;5093592;28;20024;-81
2023/04/07 02:20:24;;;;;;;56.38;33.97;;;7.70;99.90;;;;;;5068438;28;20032;-80
2023/04/07 02:22:50;;;;;;;59.03;33.85;;;7.80;99.90;;;;;;5104605;28;20042;-81
2023/04/07 02:25:29;;;;;;;66.25;33.10;;;7.80;99.90;;;;;;5082361;28;20096;-81
2023/04/07 02:27:57;;;;;;;60.22;33.28;;;7.80;99.90;;;;;;5084728;28;20040;-81
2023/04/07 02:30:23;;;;;;;74.07;34.53;;;7.80;99.90;;;;;;5073433;28;20051;-81
2023/04/07 02:32:48;;;;;;;61.38;32.97;;;7.80;99.90;;;;;;5080654;28;20391;-80
2023/04/07 02:35:18;;;;;;;69.60;33.20;;;7.80;99.90;;;;;;5066159;28;20040;-81
2023/04/07 02:37:45;;;;;;;59.65;32.45;;;7.80;99.90;;;;;;5092245;28;20499;-80
2023/04/07 02:40:12;;;;;;;60.80;31.92;;;7.80;99.90;;;;;;5079402;28;20076;-81
2023/04/07 02:42:38;;;;;;;61.78;32.42;;;7.80;99.90;;;;;;5099427;28;20776;-83
2023/04/07 02:45:05;;;;;;;54.30;30.73;;;7.90;99.90;;;;;;5090332;28;20039;-81
2023/04/07 02:47:31;;;;;;;64.35;31.55;;;7.80;99.90;;;;;;5077709;28;20051;-81
2023/04/07 02:49:57;;;;;;;55.78;30.70;;;7.80;99.90;;;;;;5070003;28;20092;-80
2023/04/07 02:52:23;;;;;;;67.15;31.45;;;7.80;99.90;;;;;;5052149;28;20040;-80
2023/04/07 02:54:48;;;;;;;69.10;31.02;;;7.90;99.90;;;;;;5062813;28;20044;-80
2023/04/07 02:57:14;;;;;;;56.85;31.02;;;7.90;99.90;;;;;;5091483;28;20119;-80
2023/04/07 02:59:40;;;;;;;60.05;30.15;;;7.90;99.90;;;;;;5085015;28;20483;-79
2023/04/07 03:02:06;;;;;;;58.67;30.50;;;7.90;99.90;;;;;;5080346;28;20088;-80
2023/04/07 03:04:32;;;;;;;57.72;29.33;;;7.90;99.90;;;;;;5096427;28;20047;-80
2023/04/07 03:06:57;;;;;;;60.60;31.17;;;8.10;99.90;;;;;;5070028;28;20361;-81
2023/04/07 03:09:23;;;;;;;66.05;31.00;;;7.90;99.90;;;;;;5063462;28;20077;-80
2023/04/07 03:11:49;;;;;;;57.55;31.33;;;7.90;99.90;;;;;;5065606;28;20046;-80
2023/04/07 03:14:15;;;;;;;57.58;31.30;;;8.00;99.90;;;;;;5102597;28;20051;-80
2023/04/07 03:16:41;;;;;;;50.45;29.08;;;7.90;99.90;;;;;;5057368;28;20089;-80
2023/04/07 03:19:07;;;;;;;125.03;33.13;;;8.00;99.90;;;;;;5068770;28;20054;-80
2023/04/07 03:21:33;;;;;;;53.17;29.95;;;8.00;99.90;;;;;;5070136;28;20036;-80
2023/04/07 03:23:59;;;;;;;47.08;27.40;;;8.00;99.90;;;;;;5060342;28;20062;-81
2023/04/07 03:26:25;;;;;;;40.88;22.08;;;8.00;99.90;;;;;;5072117;28;20491;-80
2023/04/07 03:28:51;;;;;;;40.47;21.80;;;8.00;99.90;;;;;;5060705;28;20130;-81
2023/04/07 03:31:16;;;;;;;38.65;20.60;;;8.00;99.90;;;;;;5060656;28;20040;-81
2023/04/07 03:33:42;;;;;;;35.85;18.48;;;8.00;99.90;;;;;;5060735;28;20040;-81
2023/04/07 03:36:08;;;;;;;30.20;15.27;;;8.00;99.90;;;;;;5071281;28;20036;-80
2023/04/07 03:38:34;;;;;;;26.20;12.45;;;8.00;99.90;;;;;;5126835;28;20152;-80
2023/04/07 03:40:59;;;;;;;25.02;11.02;;;8.00;99.90;;;;;;5071302;28;20549;-81
2023/04/07 03:43:25;;;;;;;29.35;12.23;;;8.00;99.90;;;;;;5059396;28;20122;-80
2023/04/07 03:45:54;;;;;;;30.17;11.63;;;8.10;99.90;;;;;;5081009;28;20088;-81
2023/04/07 03:48:20;;;;;;;27.45;11.35;;;8.10;99.90;;;;;;5080385;28;20035;-80
2023/04/07 03:50:46;;;;;;;36.58;12.35;;;8.10;99.90;;;;;;5080547;28;20088;-80
2023/04/07 03:53:15;;;;;;;29.17;11.48;;;8.10;99.90;;;;;;5063367;28;20134;-80
2023/04/07 03:55:41;;;;;;;36.15;11.63;;;8.10;99.90;;;;;;5079453;28;20070;-81
2023/04/07 03:58:08;;;;;;;38.45;11.60;;;8.10;99.90;;;;;;5096451;28;20042;-80
2023/04/07 04:00:33;;;;;;;36.33;12.32;;;8.10;99.90;;;;;;5079131;28;20055;-80
2023/04/07 04:03:00;;;;;;;32.53;12.07;;;8.20;99.90;;;;;;5096926;28;20027;-81
2023/04/07 04:05:26;;;;;;;39.10;12.18;;;8.10;99.90;;;;;;5063102;28;20043;-81
2023/04/07 04:07:51;;;;;;;34.78;11.85;;;8.10;99.90;;;;;;5079631;28;20051;-81
2023/04/07 04:10:18;;;;;;;37.92;12.60;;;8.10;99.90;;;;;;5079331;28;20027;-81
2023/04/07 04:12:46;;;;;;;34.08;12.55;;;8.10;99.90;;;;;;5077210;28;20130;-81
2023/04/07 04:15:11;;;;;;;33.45;11.15;;;8.10;99.90;;;;;;5086702;28;20365;-81
2023/04/07 04:17:37;;;;;;;35.85;10.95;;;8.10;99.90;;;;;;5089422;28;20043;-81
2023/04/07 04:20:03;;;;;;;33.03;11.27;;;8.20;99.90;;;;;;5069162;28;20109;-81
2023/04/07 04:22:29;;;;;;;37.85;11.18;;;8.10;99.90;;;;;;5078422;28;20039;-81
2023/04/07 04:24:55;;;;;;;28.40;10.10;;;8.20;99.90;;;;;;5092541;28;20040;-80
2023/04/07 04:27:20;;;;;;;32.03;9.75;;;8.10;99.90;;;;;;5032604;28;20036;-81
2023/04/07 04:29:47;;;;;;;33.92;10.98;;;8.10;99.90;;;;;;5075353;28;20123;-80
2023/04/07 04:32:13;;;;;;;32.13;9.82;;;8.20;99.90;;;;;;5059337;28;20067;-80
2023/04/07 04:34:40;;;;;;;34.40;10.73;;;8.20;99.90;;;;;;5075424;28;20073;-80
2023/04/07 04:37:06;;;;;;;33.38;10.80;;;8.20;99.90;;;;;;5104129;27;20449;-79
2023/04/07 04:39:33;;;;;;;35.20;10.80;;;8.20;99.90;;;;;;5091151;28;20083;-82
2023/04/07 04:42:00;;;;;;;28.55;10.77;;;8.20;99.90;;;;;;5067869;28;20040;-81
2023/04/07 04:44:25;;;;;;;29.75;10.32;;;8.20;99.90;;;;;;5078749;28;20093;-81
2023/04/07 04:46:51;;;;;;;38.42;11.13;;;8.20;99.90;;;;;;5062349;28;20035;-81
2023/04/07 04:49:17;;;;;;;27.63;10.73;;;8.20;99.90;;;;;;5098818;28;20058;-80
2023/04/07 04:51:44;;;;;;;38.90;11.27;;;8.20;99.90;;;;;;5113555;28;20046;-80
2023/04/07 04:54:10;;;;;;;35.28;10.18;;;8.20;99.90;;;;;;5069302;28;20126;-81
2023/04/07 04:56:35;;;;;;;37.45;11.00;;;8.20;99.90;;;;;;5094644;28;20465;-81
2023/04/07 04:59:03;;;;;;;29.17;11.15;;;8.20;99.90;;;;;;5095427;28;20043;-81
2023/04/07 05:01:29;;;;;;;37.80;11.20;;;8.20;99.90;;;;;;5062302;28;20040;-81
2023/04/07 05:03:55;;;;;;;23.52;10.55;;;8.20;99.90;;;;;;5082697;27;20431;-81
2023/04/07 05:06:21;;;;;;;39.95;10.82;;;8.20;99.90;;;;;;5078639;27;20077;-81
2023/04/07 05:08:46;;;;;;;32.10;11.35;;;8.20;99.90;;;;;;5098409;28;20039;-81
2023/04/07 05:11:12;;;;;;;25.13;10.70;;;8.20;99.90;;;;;;5059171;28;20084;-81
2023/04/07 05:13:38;;;;;;;37.08;11.13;;;8.20;99.90;;;;;;5074035;28;20036;-81
2023/04/07 05:16:04;;;;;;;38.05;11.07;;;8.20;99.90;;;;;;5076991;28;20387;-81
2023/04/07 05:18:30;;;;;;;32.50;11.65;;;8.20;99.90;;;;;;5078542;28;20127;-81
2023/04/07 05:20:56;;;;;;;40.33;11.55;;;8.20;99.90;;;;;;5056232;28;20118;-81
2023/04/07 05:23:21;;;;;;;40.50;12.32;;;8.30;99.90;;;;;;5073260;28;20044;-86
2023/04/07 05:25:47;;;;;;;32.33;11.90;;;8.30;99.90;;;;;;5053984;28;20467;-86
2023/04/07 05:28:13;;;;;;;31.17;11.80;;;8.20;99.90;;;;;;5072816;28;20101;-86
2023/04/07 05:30:39;;;;;;;30.40;12.25;;;8.20;99.90;;;;;;5059380;28;20070;-85
2023/04/07 05:33:04;;;;;;;33.83;12.73;;;8.30;99.90;;;;;;5083632;28;20036;-86
2023/04/07 05:35:30;;;;;;;34.70;12.15;;;8.30;99.90;;;;;;5062288;28;20046;-85
2023/04/07 05:37:56;;;;;;;53.08;22.88;;;8.50;99.90;;;;;;5059416;28;20055;-85
2023/04/07 05:40:22;;;;;;;42.17;22.08;;;8.30;99.90;;;;;;5047059;28;20028;-84
2023/04/07 05:42:47;;;;;;;39.42;22.13;;;8.30;99.90;;;;;;5078718;28;20445;-85
2023/04/07 05:45:13;;;;;;;46.05;22.90;;;8.20;99.90;;;;;;5095615;28;20044;-86
2023/04/07 05:47:39;;;;;;;42.50;21.75;;;8.20;99.90;;;;;;5059263;28;20040;-86
2023/04/07 05:50:05;;;;;;;43.10;23.30;;;8.90;99.90;;;;;;5057076;28;20563;-86
2023/04/07 05:52:31;;;;;;;37.40;22.45;;;8.20;99.90;;;;;;5054153;28;20040;-86
2023/04/07 05:54:56;;;;;;;49.80;24.60;;;9.00;99.90;;;;;;5067598;28;20045;-86
2023/04/07 05:57:22;;;;;;;38.35;23.77;;;8.20;99.90;;;;;;5063155;28;20035;-87
2023/04/07 05:59:48;;;;;;;36.13;23.00;;;8.20;99.90;;;;;;5061661;28;20032;-88
2023/04/07 06:02:13;;;;;;;38.13;22.65;;;8.20;99.90;;;;;;5062550;28;20387;-87
2023/04/07 06:04:39;;;;;;;40.90;24.70;;;8.20;99.90;;;;;;5096880;28;20034;-85
2023/04/07 06:07:06;;;;;;;33.13;22.55;;;8.20;99.90;;;;;;5089181;28;20047;-86
2023/04/07 06:09:31;;;;;;;40.05;24.02;;;8.20;99.90;;;;;;5074005;28;20028;-85
2023/04/07 06:11:57;;;;;;;34.42;23.20;;;8.20;99.90;;;;;;5073241;28;20166;-87
2023/04/07 06:14:23;;;;;;;32.50;20.98;;;8.20;99.90;;;;;;5062590;28;20059;-87
2023/04/07 06:16:49;;;;;;;31.42;23.15;;;8.10;99.90;;;;;;5075975;28;20041;-87
2023/04/07 06:19:15;;;;;;;31.85;22.45;;;8.30;99.90;;;;;;5084462;28;20559;-88
2023/04/07 06:21:40;;;;;;;34.90;20.65;;;8.20;99.90;;;;;;5055908;28;20039;-86
2023/04/07 06:24:07;;;;;;;26.38;18.73;;;8.20;99.90;;;;;;5076381;28;20050;-88
2023/04/07 06:26:32;;;;;;;21.75;17.55;;;8.10;99.90;;;;;;5066931;28;20032;-88
2023/04/07 06:28:58;;;;;;;23.52;18.13;;;8.20;99.90;;;;;;5077648;28;20093;-89
2023/04/07 06:31:24;;;;;;;21.58;16.63;;;8.30;99.90;;;;;;5064106;28;20442;-88
2023/04/07 06:33:50;;;;;;;22.52;16.58;;;8.20;99.90;;;;;;5064883;28;20155;-89
2023/04/07 06:36:16;;;;;;;21.20;16.85;;;8.40;99.90;;;;;;5066777;28;20123;-91
2023/04/07 06:39:18;;;;;;;26.30;19.42;;;8.30;99.90;;;;;;5079534;28;20059;-93
2023/04/07 06:42:00;;;;;;;20.25;16.25;;;9.60;99.90;;;;;;5080272;28;20049;-95
2023/04/07 06:44:47;;;;;;;18.08;15.02;;;9.10;99.90;;;;;;5070337;28;20041;-91
2023/04/07 06:50:43;;;;;;;15.48;12.77;;;8.10;99.90;;;;;;5097745;28;20066;-93
2023/04/07 06:53:40;;;;;;;15.88;13.55;;;8.20;99.90;;;;;;5083025;28;20044;-93
2023/04/07 06:56:07;;;;;;;;;;;8.20;99.90;;;;;;5081437;28;20055;-95
2023/04/07 06:59:12;;;;;;;;;;;;;;;;;;;;;
2023/04/07 07:02:13;;;;;;;13.88;11.80;;;9.00;99.90;;;;;;5103268;28;20052;-95
2023/04/07 07:04:39;;;;;;;16.50;13.07;;;8.20;99.90;;;;;;5080815;28;20388;-89
2023/04/07 07:07:05;;;;;;;16.40;13.65;;;9.60;99.90;;;;;;5073411;28;20036;-90
2023/04/07 07:09:30;;;;;;;16.05;11.82;;;8.20;99.90;;;;;;5074873;28;20059;-92
2023/04/07 07:11:56;;;;;;;16.63;13.75;;;8.30;99.90;;;;;;5071260;28;20044;-88
2023/04/07 07:14:22;;;;;;;14.13;12.02;;;8.30;99.90;;;;;;5091507;28;20048;-87
2023/04/07 07:16:47;;;;;;;12.43;10.63;;;8.30;99.90;;;;;;5073852;28;20416;-86
2023/04/07 07:19:13;;;;;;;12.10;10.68;;;8.30;99.90;;;;;;5102626;28;20028;-85
2023/04/07 07:21:39;;;;;;;13.10;11.13;;;8.30;99.90;;;;;;5082257;28;20037;-84
2023/04/07 07:24:05;;;;;;;15.05;12.27;;;8.30;99.90;;;;;;5092664;28;20178;-84
2023/04/07 07:26:31;;;;;;;12.25;10.07;;;8.40;99.90;;;;;;5074870;28;20131;-84
2023/04/07 07:28:56;;;;;;;12.73;11.43;;;8.40;99.90;;;;;;5071013;28;20043;-84
2023/04/07 07:31:23;;;;;;;12.93;11.40;;;9.10;99.90;;;;;;5079526;28;20041;-84
2023/04/07 07:33:50;;;;;;;13.15;11.57;;;8.40;99.90;;;;;;5070553;28;20051;-85
2023/04/07 07:36:16;;;;;;;12.25;10.60;;;8.90;99.90;;;;;;5065377;28;20048;-85
2023/04/07 07:38:42;;;;;;;13.82;10.25;;;8.40;99.90;;;;;;5067785;28;20054;-83
2023/04/07 07:41:08;;;;;;;14.55;11.18;;;8.50;99.90;;;;;;5037143;28;20485;-84
2023/04/07 07:43:34;;;;;;;13.60;11.68;;;7.10;99.90;;;;;;5032559;28;20040;-83
2023/04/07 07:46:02;;;;;;;12.88;11.32;;;8.50;99.90;;;;;;5057135;28;20040;-92
2023/04/07 07:48:28;;;;;;;11.98;10.02;;;8.50;99.90;;;;;;5046799;28;20097;-94
2023/04/07 07:50:55;;;;;;;12.07;10.65;;;8.50;99.90;;;;;;5072446;28;20032;-93
2023/04/07 07:53:24;;;;;;;12.25;9.95;;;8.50;99.90;;;;;;5064468;28;20040;-93
2023/04/07 07:55:54;;;;;;;14.13;10.38;;;8.90;99.90;;;;;;5074736;28;20071;-95
2023/04/07 07:58:23;;;;;;;11.48;10.27;;;8.50;99.90;;;;;;5065912;28;20127;-93
2023/04/07 08:00:49;;;;;;;14.80;12.00;;;8.50;99.90;;;;;;5053917;28;20064;-87
2023/04/07 08:03:15;;;;;;;12.45;10.23;;;8.50;99.90;;;;;;5052083;28;20059;-87
2023/04/07 08:05:43;;;;;;;11.95;8.77;;;8.60;99.90;;;;;;5058999;28;20048;-86
2023/04/07 08:08:08;;;;;;;11.05;9.15;;;8.50;99.90;;;;;;5047733;28;20036;-87
2023/04/07 08:10:34;;;;;;;12.82;9.80;;;8.60;99.90;;;;;;5068480;28;20499;-84
2023/04/07 08:13:00;;;;;;;12.13;9.30;;;8.60;99.90;;;;;;5029908;28;20036;-85
2023/04/07 08:19:07;;;;;;;10.07;8.27;;;8.80;99.90;;;;;;5095388;28;20431;-92
2023/04/07 08:21:35;;;;;;;10.95;8.60;;;8.70;99.90;;;;;;5049975;28;20037;-95
2023/04/07 08:24:10;;;;;;;10.45;8.27;;;7.70;99.90;;;;;;5051020;28;20076;-96
2023/04/07 08:26:36;;;;;;;10.00;7.55;;;8.90;99.90;;;;;;5062179;28;20080;-94
2023/04/07 08:29:04;;;;;;;10.43;8.10;;;8.80;99.90;;;;;;5065502;28;20091;-95
2023/04/07 08:31:30;;;;;;;9.80;8.00;;;8.80;99.90;;;;;;5084708;28;20025;-94
2023/04/07 08:33:56;;;;;;;10.18;8.73;;;8.80;99.90;;;;;;5064869;28;20043;-84
2023/04/07 08:36:25;;;;;;;11.45;8.98;;;8.90;99.90;;;;;;5071832;28;20094;-87
2023/04/07 08:38:51;;;;;;;10.90;9.00;;;9.10;99.90;;;;;;5055009;28;20055;-84
2023/04/07 08:41:27;;;;;;;9.43;8.13;;;9.10;99.90;;;;;;5099508;28;20035;-94
2023/04/07 08:43:56;;;;;;;10.38;8.18;;;9.20;99.90;;;;;;5084728;28;20039;-86
2023/04/07 08:46:24;;;;;;;8.48;7.55;;;10.00;99.90;;;;;;5095509;28;21051;-88
2023/04/07 08:48:51;;;;;;;9.45;7.22;;;9.30;99.90;;;;;;5076220;28;20126;-87
2023/04/07 08:51:31;;;;;;;10.68;7.72;;;9.40;99.90;;;;;;5072099;28;20036;-85
2023/04/07 08:54:17;;;;;;;8.85;7.60;;;9.40;99.90;;;;;;5069676;28;20059;-86
2023/04/07 08:56:44;;;;;;;8.35;6.97;;;9.60;99.90;;;;;;5071846;28;20040;-87
2023/04/07 08:59:14;;;;;;;8.88;6.90;;;9.60;99.90;;;;;;5066456;28;20107;-85
2023/04/07 09:01:41;;;;;;;10.90;7.72;;;9.60;99.90;;;;;;5068997;28;20036;-84
2023/04/07 09:04:08;;;;;;;8.95;6.28;;;9.60;99.90;;;;;;5071175;28;20932;-85
2023/04/07 09:06:34;;;;;;;7.22;5.53;;;9.70;99.90;;;;;;5075546;28;20040;-86
2023/04/07 09:09:01;;;;;;;7.45;5.65;;;9.70;99.90;;;;;;5054554;28;20396;-84
2023/04/07 09:11:27;;;;;;;4.90;4.38;;;9.60;99.90;;;;;;5079997;28;20031;-88
2023/04/07 09:13:54;;;;;;;4.93;3.63;;;9.60;99.90;;;;;;5059550;28;20695;-91
2023/04/07 09:16:21;;;;;;;5.43;4.13;;;9.60;99.90;;;;;;5074589;28;20040;-87
2023/04/07 09:18:46;;;;;;;5.90;3.53;;;9.50;99.90;;;;;;5064009;28;20028;-84
2023/04/07 09:21:12;;;;;;;5.07;4.13;;;9.50;99.90;;;;;;5080611;28;20051;-85
2023/04/07 09:23:39;;;;;;;5.80;4.80;;;9.50;99.90;;;;;;5083041;28;20028;-87
2023/04/07 09:26:23;;;;;;;8.30;6.75;;;9.90;99.90;;;;;;5075033;28;20039;-87
2023/04/07 09:28:55;;;;;;;6.97;6.28;;;9.40;99.90;;;;;;5082750;28;21680;-88
2023/04/07 09:31:22;;;;;;;9.02;7.60;;;9.40;99.90;;;;;;5086201;28;20089;-85
2023/04/07 09:33:48;;;;;;;9.18;7.70;;;9.40;99.90;;;;;;5081154;28;20096;-88
2023/04/07 09:36:14;;;;;;;10.38;8.88;;;8.30;99.90;;;;;;5066962;28;20449;-86
2023/04/07 09:38:42;;;;;;;10.65;8.13;;;9.40;99.90;;;;;;5035571;28;20075;-84
2023/04/07 09:41:09;;;;;;;8.40;7.55;;;9.40;99.90;;;;;;5065561;28;20036;-86
2023/04/07 09:43:44;;;;;;;9.02;7.60;;;9.50;99.90;;;;;;5085918;28;20039;-86
2023/04/07 09:46:13;;;;;;;9.98;8.15;;;9.50;99.90;;;;;;5094309;28;20154;-85
2023/04/07 09:48:41;;;;;;;9.60;8.00;;;9.00;99.90;;;;;;5087970;28;20024;-82
2023/04/07 09:51:16;;;;;;;10.30;8.45;;;9.60;99.90;;;;;;5044034;28;20123;-86
2023/04/07 09:53:51;;;;;;;11.48;9.50;;;9.60;99.90;;;;;;5074824;28;20191;-86
2023/04/07 09:56:21;;;;;;;12.07;9.83;;;9.60;99.90;;;;;;5073326;28;20040;-85
2023/04/07 09:58:51;;;;;;;11.00;9.32;;;9.70;99.90;;;;;;5070019;28;20285;-84
2023/04/07 10:01:18;;;;;;;14.50;11.88;;;9.70;99.90;;;;;;5085765;28;20039;-85
2023/04/07 10:03:45;;;;;;;14.25;11.27;;;9.80;99.90;;;;;;5073632;28;20043;-86
2023/04/07 10:06:12;;;;;;;13.73;11.07;;;9.90;99.90;;;;;;5074843;28;20088;-86
2023/04/07 10:08:40;;;;;;;13.93;11.70;;;9.90;99.90;;;;;;5092685;28;20039;-84
2023/04/07 10:11:06;;;;;;;14.75;12.40;;;10.00;99.90;;;;;;5073994;28;20081;-84
2023/04/07 10:13:34;;;;;;;14.40;11.98;;;9.90;99.90;;;;;;5086493;28;20035;-88
2023/04/07 10:16:04;;;;;;;15.85;11.73;;;9.90;99.90;;;;;;5084701;28;20044;-81
2023/04/07 10:18:32;;;;;;;15.40;12.65;;;9.90;99.90;;;;;;5070322;28;20032;-83
2023/04/07 10:21:06;;;;;;;13.40;10.50;;;9.90;99.90;;;;;;5091163;28;20048;-82
2023/04/07 10:23:51;;;;;;;10.77;9.15;;;10.00;99.90;;;;;;5095296;28;20031;-83
2023/04/07 10:26:22;;;;;;;14.30;10.27;;;10.00;99.90;;;;;;5073001;28;20084;-84
2023/04/07 10:28:52;;;;;;;12.93;10.13;;;10.10;99.90;;;;;;5078597;28;20115;-84
2023/04/07 10:31:19;;;;;;;14.20;10.68;;;10.10;99.90;;;;;;5085376;28;20044;-83
2023/04/07 10:33:50;;;;;;;9.07;7.70;;;10.30;99.90;;;;;;5080092;28;20441;-84
2023/04/07 10:36:20;;;;;;;10.00;8.15;;;10.30;99.90;;;;;;5066600;28;20044;-81
2023/04/07 10:39:07;;;;;;;9.02;7.53;;;10.40;99.90;;;;;;5087366;28;20566;-79
2023/04/07 10:41:35;;;;;;;9.82;7.57;;;10.50;99.90;;;;;;5092543;28;20028;-84
2023/04/07 10:44:05;;;;;;;9.18;7.88;;;10.50;99.90;;;;;;5094658;28;20040;-86
2023/04/07 10:47:00;;;;;;;9.82;8.30;;;10.50;99.90;;;;;;5075730;28;20051;-86
2023/04/07 10:49:26;;;;;;;8.48;7.05;;;10.50;99.90;;;;;;5071449;28;20078;-85
2023/04/07 10:52:10;;;;;;;9.60;8.00;;;10.50;99.90;;;;;;5074670;28;20039;-87
2023/04/07 10:54:37;;;;;;;10.10;7.32;;;10.50;99.90;;;;;;5076130;28;20043;-88
2023/04/07 10:57:02;;;;;;;8.40;7.20;;;10.60;99.90;;;;;;5063305;28;20104;-84
2023/04/07 10:59:28;;;;;;;8.95;7.28;;;10.60;99.90;;;;;;5087472;28;20571;-83
2023/04/07 11:02:23;;;;;;;9.07;6.88;;;10.70;99.90;;;;;;5100571;28;20039;-84
2023/04/07 11:04:52;;;;;;;7.03;6.18;;;10.80;99.90;;;;;;5068949;28;20054;-90
2023/04/07 11:07:18;;;;;;;8.40;6.53;;;10.70;99.90;;;;;;5078804;28;20036;-85
2023/04/07 11:09:44;;;;;;;7.60;6.15;;;10.80;99.90;;;;;;5075875;28;20443;-84
2023/04/07 11:12:23;;;;;;;8.68;6.53;;;10.80;99.90;;;;;;5077791;28;20062;-87
2023/04/07 11:14:49;;;;;;;7.50;6.70;;;10.90;99.90;;;;;;5078788;28;20044;-86
2023/04/07 11:17:16;;;;;;;8.40;7.50;;;10.90;99.90;;;;;;5090383;28;20062;-86
2023/04/07 11:19:52;;;;;;;8.77;6.68;;;10.90;99.90;;;;;;5036457;28;20064;-83
2023/04/07 11:22:18;;;;;;;;;;;11.00;99.90;;;;;;5035739;28;20040;-85
2023/04/07 11:24:45;;;;;;;9.75;7.05;;;11.10;99.90;;;;;;5035890;28;20006;-86
2023/04/07 11:27:12;;;;;;;7.93;7.10;;;11.10;99.90;;;;;;5072076;28;20052;-86
2023/04/07 11:29:38;;;;;;;8.70;7.25;;;11.20;99.90;;;;;;5038964;28;20056;-83
2023/04/07 11:32:04;;;;;;;8.43;7.30;;;11.20;99.90;;;;;;5053628;28;20096;-85
2023/04/07 11:34:31;;;;;;;9.35;8.05;;;11.30;99.90;;;;;;5036503;28;20045;-85
2023/04/07 11:37:16;;;;;;;8.38;7.18;;;11.30;99.90;;;;;;5064949;28;20360;-88
2023/04/07 11:39:45;;;;;;;7.80;6.88;;;11.40;99.90;;;;;;5030727;28;20102;-85
2023/04/07 11:42:10;;;;;;;8.23;7.32;;;11.40;99.90;;;;;;5018907;28;20033;-88
2023/04/07 11:44:45;;;;;;;7.53;6.45;;;11.40;99.90;;;;;;5020874;28;20052;-88
2023/04/07 11:47:10;;;;;;;7.60;6.53;;;11.40;99.90;;;;;;5033488;28;20036;-85
2023/04/07 11:49:45;;;;;;;6.47;5.80;;;11.30;99.90;;;;;;5018619;28;20051;-85
2023/04/07 11:52:10;;;;;;;7.13;6.43;;;11.30;99.90;;;;;;5047572;28;20036;-85
2023/04/07 11:54:50;;;;;;;6.40;5.63;;;11.20;99.90;;;;;;5071342;28;20464;-84
2023/04/07 11:57:25;;;;;;;6.55;5.38;;;11.20;99.90;;;;;;5074892;28;20040;-85
2023/04/07 12:00:14;;;;;;;6.53;5.65;;;10.70;99.90;;;;;;5074438;28;20039;-86
2023/04/07 12:02:40;;;;;;;7.82;7.03;;;11.10;99.90;;;;;;5048688;28;20036;-85
2023/04/07 12:05:09;;;;;;;8.23;7.38;;;11.10;99.90;;;;;;5066295;28;20089;-85
2023/04/07 12:07:37;;;;;;;7.93;6.78;;;11.20;99.90;;;;;;5074119;28;20048;-85
2023/04/07 12:10:24;;;;;;;7.50;6.47;;;11.20;99.90;;;;;;5043079;28;20040;-85
2023/04/07 12:12:50;;;;;;;7.40;6.60;;;11.20;99.90;;;;;;5067314;28;20094;-83
2023/04/07 12:15:16;;;;;;;8.27;7.28;;;11.30;99.90;;;;;;5106243;28;20028;-85
2023/04/07 12:17:47;;;;;;;6.93;6.20;;;11.30;99.90;;;;;;5053397;28;20087;-85
2023/04/07 12:20:14;;;;;;;6.80;6.00;;;11.30;99.90;;;;;;5086740;28;20459;-84
2023/04/07 12:22:40;;;;;;;6.40;5.70;;;11.30;99.90;;;;;;5056748;28;20032;-85
2023/04/07 12:25:07;;;;;;;6.10;5.50;;;11.40;99.90;;;;;;5071072;28;20039;-84
2023/04/07 12:27:33;;;;;;;6.05;4.88;;;11.40;99.90;;;;;;5042460;28;20036;-85
2023/04/07 12:29:59;;;;;;;7.50;5.78;;;11.50;99.90;;;;;;5041333;28;20054;-85
2023/04/07 12:32:25;;;;;;;5.38;4.80;;;11.60;99.90;;;;;;5055588;28;20079;-83
2023/04/07 12:34:51;;;;;;;6.80;4.28;;;11.70;99.90;;;;;;5051445;28;20443;-84
2023/04/07 12:37:17;;;;;;;5.28;4.35;;;11.80;99.90;;;;;;5056535;28;20024;-84
2023/04/07 12:39:42;;;;;;;5.78;4.03;;;11.80;99.90;;;;;;5036872;28;20181;-84
2023/04/07 12:42:10;;;;;;;5.53;4.53;;;11.90;99.90;;;;;;5086789;28;20114;-85
2023/04/07 12:44:37;;;;;;;5.70;4.88;;;11.80;99.90;;;;;;5075169;28;20104;-85
2023/04/07 12:47:03;;;;;;;5.53;4.97;;;11.90;99.90;;;;;;5074757;28;20396;-85
2023/04/07 12:49:30;;;;;;;6.43;5.45;;;12.10;99.90;;;;;;5075747;28;20507;-85
2023/04/07 12:51:56;;;;;;;6.55;5.40;;;12.10;99.90;;;;;;5077054;28;20506;-84
2023/04/07 12:54:22;;;;;;;7.22;5.65;;;12.20;99.90;;;;;;5077807;28;20031;-84
2023/04/07 12:56:48;;;;;;;7.13;5.78;;;12.20;99.90;;;;;;5059809;28;20110;-86